Time;durP1;ratioP1;P1;durP2;ratioP2;P2;SDS_P1;SDS_P2;PMS_P1;PMS_P2;Temp;Humidity;BMP_temperature;BMP_pressure;BME280_temperature;BME280_humidity;BME280_pressure;Samples;Min_cycle;Max_cycle;Signal;HPM_P1;HPM_P2
2022/12/18 00:00:46;;;;;;;81.38;33.85;;;-2.20;99.90;;;;;;5095481;28;20039;-80
2022/12/18 00:03:13;;;;;;;83.20;33.45;;;-2.20;99.90;;;;;;5094192;28;20020;-81
2022/12/18 00:05:50;;;;;;;71.13;31.92;;;-2.20;99.90;;;;;;5095412;28;20024;-81
2022/12/18 00:08:16;;;;;;;69.28;30.92;;;-2.20;99.90;;;;;;5095469;28;21586;-81
2022/12/18 00:10:42;;;;;;;81.35;33.15;;;-2.30;99.90;;;;;;5095446;28;20028;-80
2022/12/18 00:13:07;;;;;;;80.47;32.92;;;-2.20;99.90;;;;;;5095125;28;20290;-81
2022/12/18 00:15:35;;;;;;;72.70;31.88;;;-2.40;99.90;;;;;;5094481;28;20039;-81
2022/12/18 00:18:00;;;;;;;74.60;33.25;;;-2.20;99.90;;;;;;5093948;28;20424;-81
2022/12/18 00:20:26;;;;;;;75.38;31.88;;;-2.40;99.90;;;;;;5094153;28;20085;-81
2022/12/18 00:22:53;;;;;;;75.45;33.83;;;-2.30;99.90;;;;;;5095438;28;20024;-81
2022/12/18 00:25:19;;;;;;;70.07;32.05;;;-2.50;99.90;;;;;;5095382;28;20024;-81
2022/12/18 00:27:44;;;;;;;77.75;34.20;;;-2.40;99.90;;;;;;5094698;28;20034;-81
2022/12/18 00:30:11;;;;;;;86.70;33.90;;;-2.40;99.90;;;;;;5086497;28;20036;-80
2022/12/18 00:32:37;;;;;;;86.22;33.13;;;-2.70;99.90;;;;;;5093742;28;20040;-79
2022/12/18 00:35:03;;;;;;;82.85;34.95;;;-2.80;99.90;;;;;;5079530;28;20460;-79
2022/12/18 00:37:30;;;;;;;87.15;35.50;;;-2.70;99.90;;;;;;5097121;28;20068;-80
2022/12/18 00:39:55;;;;;;;98.20;39.92;;;-2.70;99.90;;;;;;5097459;28;20036;-80
2022/12/18 00:45:06;;;;;;;90.88;37.53;;;-2.50;99.90;;;;;;5097219;28;20032;-78
2022/12/18 00:47:32;;;;;;;75.65;33.88;;;-2.50;99.90;;;;;;5095853;28;20012;-76
2022/12/18 00:49:57;;;;;;;82.63;33.60;;;-2.50;99.90;;;;;;5099006;28;20154;-79
2022/12/18 00:52:23;;;;;;;82.93;35.42;;;-2.40;99.90;;;;;;5096147;28;20027;-79
2022/12/18 00:54:49;;;;;;;79.40;34.70;;;-2.50;99.90;;;;;;5097743;28;20032;-80
2022/12/18 00:57:14;;;;;;;83.07;36.08;;;-2.60;99.90;;;;;;5094511;28;20028;-81
2022/12/18 00:59:40;;;;;;;82.75;35.22;;;-2.50;99.90;;;;;;5095181;28;20032;-81
2022/12/18 01:02:06;;;;;;;88.80;35.70;;;-2.50;99.90;;;;;;5096267;28;20136;-81
2022/12/18 01:04:33;;;;;;;92.95;37.90;;;-2.40;99.90;;;;;;5097037;28;20094;-80
2022/12/18 01:07:00;;;;;;;85.60;39.30;;;-2.50;99.90;;;;;;5095014;28;20023;-80
2022/12/18 01:09:26;;;;;;;89.45;36.97;;;-2.50;99.90;;;;;;5076371;28;20027;-80
2022/12/18 01:11:52;;;;;;;85.05;37.40;;;-2.50;99.90;;;;;;5092853;28;20119;-80
2022/12/18 01:14:18;;;;;;;85.38;36.28;;;-2.60;99.90;;;;;;5092786;28;20031;-81
2022/12/18 01:16:44;;;;;;;83.15;37.92;;;-2.60;99.90;;;;;;5092800;28;20028;-79
2022/12/18 01:19:09;;;;;;;79.80;37.08;;;-2.50;99.90;;;;;;5093904;28;20559;-80
2022/12/18 01:21:35;;;;;;;82.05;35.38;;;-2.50;99.90;;;;;;5092562;28;20115;-81
2022/12/18 01:24:04;;;;;;;82.00;32.67;;;-2.50;99.90;;;;;;5091194;28;20496;-81
2022/12/18 01:26:30;;;;;;;81.15;34.35;;;-2.60;99.90;;;;;;5082322;28;20188;-81
2022/12/18 01:28:57;;;;;;;77.00;34.85;;;-2.60;99.90;;;;;;5093346;28;20031;-81
2022/12/18 01:31:26;;;;;;;79.20;33.65;;;-2.60;99.90;;;;;;5093980;28;20020;-81
2022/12/18 01:33:52;;;;;;;84.63;35.47;;;-2.60;99.90;;;;;;5092440;28;20115;-81
2022/12/18 01:36:20;;;;;;;83.18;36.65;;;-2.60;99.90;;;;;;5092172;28;20023;-81
2022/12/18 01:38:46;;;;;;;81.97;34.65;;;-2.60;99.90;;;;;;5093809;28;20036;-80
2022/12/18 01:41:12;;;;;;;86.97;34.15;;;-2.80;99.90;;;;;;5093403;28;20031;-80
2022/12/18 01:43:55;;;;;;;83.00;34.28;;;-2.70;99.90;;;;;;5092418;28;20027;-80
2022/12/18 01:46:27;;;;;;;82.82;34.20;;;-2.70;99.90;;;;;;5089027;28;20037;-80
2022/12/18 01:49:01;;;;;;;82.75;35.13;;;-2.70;99.90;;;;;;5083494;28;20035;-80
2022/12/18 01:51:30;;;;;;;80.68;35.88;;;-2.60;99.90;;;;;;5093549;28;20031;-81
2022/12/18 01:53:59;;;;;;;77.85;33.60;;;-2.70;99.90;;;;;;5092321;28;20502;-80
2022/12/18 01:56:24;;;;;;;80.00;34.42;;;-2.70;99.90;;;;;;5074930;28;20024;-80
2022/12/18 01:59:04;;;;;;;81.70;34.13;;;-2.70;99.90;;;;;;5091881;28;20028;-80
2022/12/18 02:01:32;;;;;;;76.80;33.13;;;-2.70;99.90;;;;;;5093378;28;20040;-81
2022/12/18 02:04:20;;;;;;;75.38;34.15;;;-2.70;99.90;;;;;;5092262;28;20069;-81
2022/12/18 02:06:50;;;;;;;80.68;33.15;;;-2.70;99.90;;;;;;5093294;28;20020;-80
2022/12/18 02:09:24;;;;;;;78.32;33.80;;;-2.80;99.90;;;;;;5091494;28;20153;-80
2022/12/18 02:12:23;;;;;;;83.43;32.55;;;-2.70;99.90;;;;;;5093117;28;20491;-81
2022/12/18 02:14:54;;;;;;;79.03;34.28;;;-2.70;99.90;;;;;;5089612;28;20048;-81
2022/12/18 02:17:23;;;;;;;77.50;33.08;;;-2.80;99.90;;;;;;5074978;28;20024;-81
2022/12/18 02:20:16;;;;;;;73.95;33.63;;;-2.80;99.90;;;;;;5091687;28;20040;-81
2022/12/18 02:23:05;;;;;;;81.97;33.22;;;-2.70;99.90;;;;;;5092904;28;20105;-81
2022/12/18 02:25:50;;;;;;;84.45;33.38;;;-2.90;99.90;;;;;;5038339;28;20037;-81
2022/12/18 02:28:18;;;;;;;76.63;33.38;;;-3.00;99.90;;;;;;5092147;28;20384;-81
2022/12/18 02:30:48;;;;;;;76.38;33.83;;;-3.00;99.90;;;;;;5091408;28;20023;-80
2022/12/18 02:33:15;;;;;;;80.75;34.40;;;-2.90;99.90;;;;;;5083151;28;20453;-81
2022/12/18 02:35:45;;;;;;;76.30;33.97;;;-3.10;99.90;;;;;;5070020;28;20117;-81
2022/12/18 02:38:12;;;;;;;78.43;34.13;;;-3.00;99.90;;;;;;5055952;28;20125;-81
2022/12/18 02:40:42;;;;;;;78.45;31.80;;;-3.00;99.90;;;;;;5071401;28;20515;-81
2022/12/18 02:43:11;;;;;;;79.20;32.65;;;-3.10;99.90;;;;;;5071460;28;20036;-80
2022/12/18 02:45:52;;;;;;;78.30;33.80;;;-3.10;99.90;;;;;;5071137;28;20109;-80
2022/12/18 02:48:23;;;;;;;71.18;33.00;;;-3.20;99.90;;;;;;5071435;28;20021;-81
2022/12/18 02:50:59;;;;;;;77.95;34.08;;;-3.30;99.90;;;;;;5071075;28;20033;-81
2022/12/18 02:53:43;;;;;;;80.22;32.85;;;-3.10;99.90;;;;;;5071054;28;20511;-80
2022/12/18 02:56:14;;;;;;;82.18;33.88;;;-3.00;99.90;;;;;;5054622;28;20094;-81
2022/12/18 02:58:43;;;;;;;;;;;-3.10;99.90;;;;;;5072042;28;20036;-80
2022/12/18 03:01:34;;;;;;;68.97;29.30;;;-3.20;99.90;;;;;;5057589;28;19915;-81
2022/12/18 03:04:16;;;;;;;79.35;33.13;;;-3.00;99.90;;;;;;5072053;28;20410;-80
2022/12/18 03:06:48;;;;;;;73.63;30.10;;;-2.80;99.90;;;;;;5071490;28;20487;-80
2022/12/18 03:09:21;;;;;;;76.45;32.03;;;-3.00;99.90;;;;;;5077587;28;20052;-80
2022/12/18 03:14:43;;;;;;;74.32;30.63;;;-2.90;99.90;;;;;;5085315;28;20029;-80
2022/12/18 03:17:17;;;;;;;69.10;30.33;;;-2.70;99.90;;;;;;5085872;28;20028;-81
2022/12/18 03:19:46;;;;;;;74.47;31.30;;;-2.70;99.90;;;;;;5085963;28;20046;-80
2022/12/18 03:22:12;;;;;;;78.50;30.70;;;-2.90;99.90;;;;;;5080742;28;20024;-79
2022/12/18 03:24:48;;;;;;;73.72;30.98;;;-3.00;99.90;;;;;;5055521;28;20512;-81
2022/12/18 03:27:18;;;;;;;76.22;32.08;;;-3.10;99.90;;;;;;5073121;28;20103;-79
2022/12/18 03:30:10;;;;;;;72.82;30.48;;;-3.10;99.90;;;;;;5056789;28;20020;-78
2022/12/18 03:32:56;;;;;;;71.60;29.30;;;-3.10;99.90;;;;;;5071407;28;20392;-77
2022/12/18 03:35:28;;;;;;;65.72;29.35;;;-3.10;99.90;;;;;;5054636;28;20070;-76
2022/12/18 03:37:55;;;;;;;72.72;29.67;;;-3.10;99.90;;;;;;5070869;28;20465;-76
2022/12/18 03:40:27;;;;;;;60.53;27.35;;;-2.90;99.90;;;;;;5070889;28;20029;-76
2022/12/18 03:42:59;;;;;;;;;;;-3.00;99.90;;;;;;5072644;28;20059;-75
2022/12/18 03:45:34;;;;;;;66.53;29.30;;;-3.00;99.90;;;;;;5053940;28;20395;-78
2022/12/18 03:48:14;;;;;;;77.78;29.55;;;-3.10;99.90;;;;;;5054241;28;20039;-76
2022/12/18 03:50:44;;;;;;;67.88;28.52;;;-3.10;99.90;;;;;;5054198;28;20506;-76
2022/12/18 03:53:16;;;;;;;62.28;28.63;;;-3.40;99.90;;;;;;5075903;28;20024;-77
2022/12/18 03:55:44;;;;;;;55.75;25.25;;;-3.30;99.90;;;;;;5074009;28;20089;-77
2022/12/18 03:58:15;;;;;;;59.83;27.17;;;-3.20;99.90;;;;;;5074081;28;20028;-76
2022/12/18 04:00:55;;;;;;;59.35;25.77;;;-3.30;99.90;;;;;;5074207;28;20036;-76
2022/12/18 04:03:23;;;;;;;62.95;27.40;;;-3.30;99.90;;;;;;5057472;28;20044;-76
2022/12/18 04:05:52;;;;;;;58.65;25.40;;;-3.30;99.90;;;;;;5073536;28;20031;-76
2022/12/18 04:08:22;;;;;;;62.85;27.45;;;-3.40;99.90;;;;;;5074003;28;20017;-76
2022/12/18 04:10:56;;;;;;;65.20;27.52;;;-3.30;99.90;;;;;;5073339;28;20031;-76
2022/12/18 04:13:27;;;;;;;59.05;26.75;;;-3.30;99.90;;;;;;5074050;28;20021;-76
2022/12/18 04:15:53;;;;;;;55.00;25.33;;;-3.30;99.90;;;;;;5073657;28;20465;-76
2022/12/18 04:18:20;;;;;;;55.17;24.88;;;-3.30;99.90;;;;;;5072403;28;20064;-77
2022/12/18 04:20:48;;;;;;;57.90;25.75;;;-3.40;99.90;;;;;;5073599;28;20022;-80
2022/12/18 04:23:14;;;;;;;62.40;26.40;;;-3.30;99.90;;;;;;5073532;28;20387;-80
2022/12/18 04:25:40;;;;;;;56.80;25.45;;;-3.20;99.90;;;;;;5061683;28;20108;-82
2022/12/18 04:28:10;;;;;;;56.40;24.40;;;-3.20;99.90;;;;;;5058186;28;20104;-79
2022/12/18 04:30:38;;;;;;;55.03;25.83;;;-3.40;99.90;;;;;;5053194;28;20049;-80
2022/12/18 04:33:12;;;;;;;65.10;24.75;;;-3.30;99.90;;;;;;5053613;28;20027;-80
2022/12/18 04:35:39;;;;;;;58.42;25.25;;;-3.20;99.90;;;;;;5065618;28;20108;-79
2022/12/18 04:38:08;;;;;;;54.47;24.00;;;-3.20;99.90;;;;;;5054690;28;20032;-79
2022/12/18 04:40:34;;;;;;;47.78;22.50;;;-3.20;99.90;;;;;;5068766;28;20025;-80
2022/12/18 04:43:02;;;;;;;54.92;23.08;;;-3.20;99.90;;;;;;5053418;28;20028;-80
2022/12/18 04:45:28;;;;;;;49.40;23.17;;;-3.30;99.90;;;;;;5057096;28;20071;-81
2022/12/18 04:47:54;;;;;;;57.22;22.05;;;-3.50;99.90;;;;;;5055502;28;20029;-81
2022/12/18 04:50:19;;;;;;;59.20;24.40;;;-3.50;99.90;;;;;;5055295;28;20048;-79
2022/12/18 04:52:45;;;;;;;54.08;23.35;;;-3.60;99.90;;;;;;5058326;28;20052;-80
2022/12/18 04:55:12;;;;;;;59.55;25.13;;;-3.60;99.90;;;;;;5054421;28;20081;-81
2022/12/18 04:57:38;;;;;;;51.63;21.88;;;-3.50;99.90;;;;;;5080941;28;20032;-80
2022/12/18 05:00:05;;;;;;;57.10;24.00;;;-3.60;99.90;;;;;;5063988;28;20043;-80
2022/12/18 05:02:31;;;;;;;50.65;22.52;;;-3.70;99.90;;;;;;5074068;28;20024;-80
2022/12/18 05:04:57;;;;;;;47.65;21.90;;;-3.50;99.90;;;;;;5073448;28;20388;-80
2022/12/18 05:07:23;;;;;;;51.55;22.45;;;-3.50;99.90;;;;;;5072612;28;20031;-80
2022/12/18 05:09:48;;;;;;;59.38;23.40;;;-3.30;99.90;;;;;;5073835;28;20510;-81
2022/12/18 05:12:14;;;;;;;53.38;21.08;;;-3.40;99.90;;;;;;5073759;28;20078;-81
2022/12/18 05:14:40;;;;;;;50.67;21.50;;;-3.40;99.90;;;;;;5073593;28;20457;-79
2022/12/18 05:17:06;;;;;;;42.67;20.60;;;-3.30;99.90;;;;;;5074297;28;20032;-80
2022/12/18 05:19:31;;;;;;;41.45;20.77;;;-3.40;99.90;;;;;;5073166;28;20063;-80
2022/12/18 05:21:57;;;;;;;49.00;20.35;;;-3.50;99.90;;;;;;5073716;28;20377;-80
2022/12/18 05:24:23;;;;;;;46.45;19.75;;;-3.40;99.90;;;;;;5073603;28;20047;-80
2022/12/18 05:26:49;;;;;;;41.17;19.67;;;-3.40;99.90;;;;;;5073503;28;20021;-80
2022/12/18 05:29:15;;;;;;;43.47;19.40;;;-3.30;99.90;;;;;;5072466;28;20048;-80
2022/12/18 05:31:41;;;;;;;41.67;19.83;;;-3.30;99.90;;;;;;5073405;28;20017;-81
2022/12/18 05:34:06;;;;;;;44.80;20.25;;;-3.20;99.90;;;;;;5073272;28;20052;-80
2022/12/18 05:36:32;;;;;;;43.60;19.63;;;-3.20;99.90;;;;;;5073219;28;20064;-81
2022/12/18 05:38:59;;;;;;;46.35;20.20;;;-3.20;99.90;;;;;;5073009;28;20032;-80
2022/12/18 05:41:26;;;;;;;45.33;18.90;;;-3.10;99.90;;;;;;5073503;28;20033;-80
2022/12/18 05:43:51;;;;;;;40.88;19.00;;;-3.00;99.90;;;;;;5073129;28;20033;-80
2022/12/18 05:46:18;;;;;;;38.58;19.40;;;-3.00;99.90;;;;;;5073389;28;20032;-79
2022/12/18 05:48:44;;;;;;;62.28;29.02;;;-3.20;99.90;;;;;;5071214;28;20166;-79
2022/12/18 05:51:14;;;;;;;47.03;22.70;;;-3.40;99.90;;;;;;5073443;28;20021;-80
2022/12/18 05:53:41;;;;;;;45.45;18.80;;;-3.50;99.90;;;;;;5073139;28;20384;-79
2022/12/18 05:56:10;;;;;;;40.45;18.42;;;-3.40;99.90;;;;;;5055240;28;20051;-80
2022/12/18 05:58:37;;;;;;;38.60;17.70;;;-3.50;99.90;;;;;;5071794;28;20036;-80
2022/12/18 06:01:15;;;;;;;41.50;19.42;;;-3.50;99.90;;;;;;5072882;28;20032;-80
2022/12/18 06:03:41;;;;;;;41.42;17.25;;;-3.50;99.90;;;;;;5073554;28;20550;-77
2022/12/18 06:06:33;;;;;;;40.30;17.70;;;-3.50;99.90;;;;;;5073393;28;20048;-77
2022/12/18 06:08:59;;;;;;;39.00;16.95;;;-3.40;99.90;;;;;;5069884;28;20113;-79
2022/12/18 06:11:26;;;;;;;39.08;17.67;;;-3.40;99.90;;;;;;5072795;28;20064;-80
2022/12/18 06:13:54;;;;;;;33.78;16.38;;;-3.40;99.90;;;;;;5072712;28;20404;-80
2022/12/18 06:16:20;;;;;;;37.85;17.02;;;-3.40;99.90;;;;;;5072519;28;20016;-80
2022/12/18 06:18:46;;;;;;;35.67;16.90;;;-3.60;99.90;;;;;;5071456;28;20466;-79
2022/12/18 06:21:11;;;;;;;33.55;16.23;;;-3.50;99.90;;;;;;5072718;28;20112;-80
2022/12/18 06:23:37;;;;;;;38.70;16.25;;;-3.50;99.90;;;;;;5072926;28;20111;-79
2022/12/18 06:26:09;;;;;;;36.05;15.65;;;-3.40;99.90;;;;;;5071509;28;20024;-80
2022/12/18 06:28:35;;;;;;;23.00;11.00;;;-3.40;99.90;;;;;;5054716;28;20025;-80
2022/12/18 06:31:03;;;;;;;35.78;15.65;;;-3.50;99.90;;;;;;5063404;28;20271;-80
2022/12/18 06:33:29;;;;;;;32.08;13.52;;;-3.40;99.90;;;;;;5072809;28;20513;-80
2022/12/18 06:36:10;;;;;;;32.00;15.43;;;-3.40;99.90;;;;;;5071241;28;20040;-80
2022/12/18 06:38:37;;;;;;;35.78;16.15;;;-3.30;99.90;;;;;;5072527;28;20123;-80
2022/12/18 06:41:16;;;;;;;40.35;16.42;;;-3.10;99.90;;;;;;5072598;28;20389;-80
2022/12/18 06:43:42;;;;;;;33.42;15.23;;;-3.40;99.90;;;;;;5071162;28;20435;-80
2022/12/18 06:46:08;;;;;;;33.60;15.38;;;-3.20;99.90;;;;;;5070933;28;20017;-80
2022/12/18 06:48:34;;;;;;;34.75;15.82;;;-3.20;99.90;;;;;;5072601;28;20074;-80
2022/12/18 06:51:00;;;;;;;36.33;16.30;;;-3.30;99.90;;;;;;5072377;28;20153;-80
2022/12/18 06:53:26;;;;;;;34.92;14.93;;;-3.20;99.90;;;;;;5072729;28;20023;-76
2022/12/18 06:55:52;;;;;;;32.85;16.60;;;-3.20;99.90;;;;;;5072277;28;20020;-77
2022/12/18 06:58:18;;;;;;;40.30;17.55;;;-3.20;99.90;;;;;;5071275;28;20041;-77
2022/12/18 07:00:44;;;;;;;38.78;15.95;;;-3.20;99.90;;;;;;5071470;28;20020;-77
2022/12/18 07:03:10;;;;;;;39.50;17.33;;;-3.10;99.90;;;;;;5072508;28;20494;-77
2022/12/18 07:05:40;;;;;;;34.83;15.80;;;-3.00;99.90;;;;;;5072351;28;20028;-76
2022/12/18 07:08:06;;;;;;;33.03;16.38;;;-3.20;99.90;;;;;;5072471;28;20047;-77
2022/12/18 07:10:32;;;;;;;42.40;18.98;;;-3.30;99.90;;;;;;5054449;28;20465;-76
2022/12/18 07:12:58;;;;;;;63.38;27.80;;;-3.20;99.90;;;;;;5072212;28;20027;-76
2022/12/18 07:15:24;;;;;;;77.50;28.52;;;-3.20;99.90;;;;;;5054211;28;20534;-77
2022/12/18 07:17:49;;;;;;;70.13;29.70;;;-3.10;99.90;;;;;;5072332;28;20020;-76
2022/12/18 07:20:15;;;;;;;51.15;23.33;;;-3.20;99.90;;;;;;5072265;28;20043;-80
2022/12/18 07:22:41;;;;;;;31.80;15.13;;;-3.20;99.90;;;;;;5072178;28;20322;-80
2022/12/18 07:25:07;;;;;;;32.42;16.00;;;-3.20;99.90;;;;;;5071180;28;20469;-80
2022/12/18 07:27:32;;;;;;;29.00;13.40;;;-3.40;99.90;;;;;;5075765;28;20424;-81
2022/12/18 07:29:58;;;;;;;32.03;15.65;;;-3.30;99.90;;;;;;5074358;28;20028;-80
2022/12/18 07:32:24;;;;;;;35.72;15.98;;;-3.50;99.90;;;;;;5074818;28;20095;-80
2022/12/18 07:34:50;;;;;;;35.28;16.25;;;-3.50;99.90;;;;;;5065276;28;20033;-79
2022/12/18 07:37:16;;;;;;;35.67;15.60;;;-3.40;99.90;;;;;;5069767;28;20039;-80
2022/12/18 07:39:44;;;;;;;31.00;15.95;;;-3.30;99.90;;;;;;5056718;28;20032;-81
2022/12/18 07:44:54;;;;;;;31.90;15.73;;;-3.10;99.90;;;;;;5072306;28;20032;-81
2022/12/18 07:47:20;;;;;;;33.72;16.67;;;-2.90;99.90;;;;;;5072565;28;20021;-81
2022/12/18 07:49:46;;;;;;;37.25;19.05;;;-2.90;99.90;;;;;;5064301;28;20024;-80
2022/12/18 07:52:12;;;;;;;33.33;16.45;;;-3.00;99.90;;;;;;5072100;28;20043;-78
2022/12/18 07:54:38;;;;;;;32.33;15.95;;;-3.00;99.90;;;;;;5073000;28;20024;-81
2022/12/18 07:57:04;;;;;;;33.40;14.98;;;-3.00;99.90;;;;;;5040167;28;20424;-78
2022/12/18 07:59:30;;;;;;;29.63;13.75;;;-3.10;99.90;;;;;;5060279;28;20044;-80
2022/12/18 08:01:56;;;;;;;25.05;13.02;;;-3.10;99.90;;;;;;5040675;28;20240;-76
2022/12/18 08:04:22;;;;;;;30.45;15.75;;;-3.20;99.90;;;;;;5056831;28;20020;-78
2022/12/18 08:06:47;;;;;;;33.40;15.38;;;-3.10;99.90;;;;;;5054716;28;20025;-82
2022/12/18 08:09:13;;;;;;;29.55;14.63;;;-3.20;99.90;;;;;;5054902;28;20017;-82
2022/12/18 08:11:39;;;;;;;26.75;14.93;;;-3.10;99.90;;;;;;5054089;28;20036;-81
2022/12/18 08:14:05;;;;;;;28.17;13.98;;;-3.00;99.90;;;;;;5056547;28;20033;-82
2022/12/18 08:16:31;;;;;;;34.05;16.25;;;-3.00;99.90;;;;;;5057665;28;20017;-82
2022/12/18 08:18:56;;;;;;;30.33;15.27;;;-3.10;99.90;;;;;;5055420;28;20044;-80
2022/12/18 08:21:28;;;;;;;29.85;15.38;;;-3.10;99.90;;;;;;5054285;28;20025;-81
2022/12/18 08:23:56;;;;;;;29.13;13.75;;;-3.10;99.90;;;;;;5055666;28;20017;-81
2022/12/18 08:26:22;;;;;;;30.40;14.77;;;-3.00;99.90;;;;;;5057910;28;20029;-81
2022/12/18 08:28:49;;;;;;;29.67;14.85;;;-2.90;99.90;;;;;;5055683;28;20067;-81
2022/12/18 08:31:15;;;;;;;29.30;14.10;;;-2.80;99.90;;;;;;5068632;28;20119;-81
2022/12/18 08:33:41;;;;;;;29.67;15.02;;;-2.60;99.90;;;;;;5074296;28;20112;-81
2022/12/18 08:36:09;;;;;;;28.33;13.75;;;-2.50;99.90;;;;;;5072796;28;20104;-81
2022/12/18 08:38:34;;;;;;;25.25;12.40;;;-2.00;99.90;;;;;;5079224;28;20142;-82
2022/12/18 08:41:06;;;;;;;26.85;12.27;;;-2.00;99.90;;;;;;5077664;28;20105;-81
2022/12/18 08:46:18;;;;;;;22.98;12.07;;;-2.10;99.90;;;;;;5073057;28;20119;-77
2022/12/18 08:48:44;;;;;;;22.80;11.98;;;-2.10;99.90;;;;;;5074294;28;20060;-78
2022/12/18 08:51:10;;;;;;;27.55;13.00;;;-2.10;99.90;;;;;;5073265;28;20075;-77
2022/12/18 08:53:37;;;;;;;25.27;12.52;;;-2.10;99.90;;;;;;5074457;28;20021;-78
2022/12/18 08:56:04;;;;;;;32.22;13.88;;;-2.10;99.90;;;;;;5070701;28;20016;-78
2022/12/18 08:58:30;;;;;;;25.38;12.88;;;-2.00;99.90;;;;;;5055882;28;20028;-78
2022/12/18 09:01:05;;;;;;;22.40;11.93;;;-2.10;99.90;;;;;;5072300;28;20029;-78
2022/12/18 09:03:31;;;;;;;25.10;12.07;;;-1.90;99.90;;;;;;5074036;28;20045;-77
2022/12/18 09:05:57;;;;;;;26.73;12.98;;;-1.90;99.90;;;;;;5073434;28;20565;-77
2022/12/18 09:08:22;;;;;;;25.90;12.70;;;-1.70;99.90;;;;;;5071652;28;20119;-77
2022/12/18 09:10:50;;;;;;;26.30;13.60;;;-1.70;99.90;;;;;;5073348;28;20028;-78
2022/12/18 09:13:16;;;;;;;37.08;18.50;;;-1.60;99.90;;;;;;5072627;28;20090;-78
2022/12/18 09:15:51;;;;;;;29.33;14.65;;;-1.60;99.90;;;;;;5073258;28;20028;-77
2022/12/18 09:18:18;;;;;;;21.67;12.40;;;-1.40;99.90;;;;;;5073161;28;20040;-77
2022/12/18 09:20:44;;;;;;;23.08;12.25;;;-1.60;99.90;;;;;;5073781;28;20021;-78
2022/12/18 09:23:10;;;;;;;26.48;12.45;;;-1.60;99.90;;;;;;5073614;28;20054;-77
2022/12/18 09:25:37;;;;;;;20.20;11.70;;;-1.60;99.90;;;;;;5073515;28;20024;-77
2022/12/18 09:28:06;;;;;;;23.80;11.90;;;-1.50;99.90;;;;;;5073756;28;20025;-77
2022/12/18 09:30:33;;;;;;;25.88;11.93;;;-1.40;99.90;;;;;;5074470;28;20029;-77
2022/12/18 09:32:59;;;;;;;25.17;12.30;;;-1.20;99.90;;;;;;5073478;28;20142;-79
2022/12/18 09:35:27;;;;;;;24.73;11.40;;;-1.00;99.90;;;;;;5073650;28;20031;-79
2022/12/18 09:37:53;;;;;;;23.50;12.13;;;-1.10;99.90;;;;;;5072152;28;20433;-81
2022/12/18 09:40:22;;;;;;;24.52;11.93;;;-1.10;99.90;;;;;;5073318;28;20028;-81
2022/12/18 09:43:03;;;;;;;23.52;12.80;;;-1.00;99.90;;;;;;5072213;28;20029;-81
2022/12/18 09:45:37;;;;;;;21.65;11.10;;;-0.80;99.90;;;;;;5073390;28;20536;-81
2022/12/18 09:48:05;;;;;;;20.45;11.05;;;-1.10;99.90;;;;;;5072954;28;20033;-80
2022/12/18 09:50:35;;;;;;;23.02;10.98;;;-1.30;99.90;;;;;;5072445;28;20037;-80
2022/12/18 09:53:15;;;;;;;20.35;11.13;;;-1.30;99.90;;;;;;5072904;28;20070;-80
2022/12/18 09:55:43;;;;;;;23.85;11.68;;;-1.10;99.90;;;;;;5073361;28;20058;-81
2022/12/18 09:58:16;;;;;;;22.20;10.85;;;-1.10;99.90;;;;;;5051885;28;20425;-79
2022/12/18 10:00:42;;;;;;;26.17;12.02;;;-1.00;99.90;;;;;;5068185;28;20036;-80
2022/12/18 10:03:12;;;;;;;22.20;11.38;;;-1.10;99.90;;;;;;5073410;28;20016;-80
2022/12/18 10:06:20;;;;;;;24.60;11.40;;;-1.20;99.90;;;;;;5073178;28;20086;-80
2022/12/18 10:09:04;;;;;;;23.63;11.25;;;-1.30;99.90;;;;;;5002655;28;20037;-80
2022/12/18 10:11:47;;;;;;;24.92;12.50;;;-1.20;99.90;;;;;;5055398;28;20428;-80
2022/12/18 10:14:31;;;;;;;21.23;11.05;;;-1.10;99.90;;;;;;5077684;28;20059;-81
2022/12/18 10:17:09;;;;;;;22.98;11.60;;;-1.20;99.90;;;;;;5058077;28;20037;-80
2022/12/18 10:19:49;;;;;;;22.48;11.50;;;-1.30;99.90;;;;;;5072944;28;20040;-80
2022/12/18 10:22:25;;;;;;;24.80;11.80;;;-1.20;99.90;;;;;;5075474;28;20020;-80
2022/12/18 10:25:22;;;;;;;23.83;12.55;;;-1.20;99.90;;;;;;5074140;28;20032;-80
2022/12/18 10:27:51;;;;;;;22.45;11.35;;;-1.10;99.90;;;;;;5069566;28;20040;-80
2022/12/18 10:30:20;;;;;;;20.00;10.73;;;-1.00;99.90;;;;;;5071527;28;20028;-80
2022/12/18 10:32:47;;;;;;;25.55;11.85;;;-0.90;99.90;;;;;;5072805;28;20111;-79
2022/12/18 10:35:26;;;;;;;23.60;12.70;;;-1.00;99.90;;;;;;5054517;28;20104;-78
2022/12/18 10:38:04;;;;;;;24.27;11.50;;;-1.00;99.90;;;;;;5072528;28;20040;-80
2022/12/18 10:40:30;;;;;;;22.30;11.80;;;-1.00;99.90;;;;;;5059464;28;20048;-80
2022/12/18 10:43:12;;;;;;;25.10;13.23;;;-0.90;99.90;;;;;;5072545;28;20028;-80
2022/12/18 10:45:39;;;;;;;31.98;14.35;;;-0.80;99.90;;;;;;5072611;28;20531;-79
2022/12/18 10:48:17;;;;;;;30.80;15.00;;;-0.90;99.90;;;;;;5067590;28;20015;-80
2022/12/18 10:50:48;;;;;;;24.13;12.52;;;-0.70;99.90;;;;;;5067125;28;20025;-80
2022/12/18 10:53:20;;;;;;;36.45;17.63;;;-0.70;99.90;;;;;;5071161;28;20029;-80
2022/12/18 10:55:47;;;;;;;40.58;17.45;;;-0.50;99.90;;;;;;5072147;28;20047;-79
2022/12/18 10:58:21;;;;;;;34.35;15.77;;;-0.20;99.90;;;;;;5072276;28;20054;-80
2022/12/18 11:01:11;;;;;;;28.05;14.20;;;-0.20;99.90;;;;;;5074929;28;20029;-80
2022/12/18 11:03:45;;;;;;;25.63;12.23;;;-0.30;99.90;;;;;;5075008;28;20400;-80
2022/12/18 11:06:15;;;;;;;21.85;11.75;;;-0.40;99.90;;;;;;5075658;28;20025;-80
2022/12/18 11:08:43;;;;;;;22.90;12.27;;;-0.50;99.90;;;;;;5076203;28;20078;-80
2022/12/18 11:11:30;;;;;;;24.80;12.88;;;-0.50;99.90;;;;;;5075992;28;20469;-80
2022/12/18 11:14:06;;;;;;;25.40;12.77;;;-0.60;99.90;;;;;;5075769;28;20028;-80
2022/12/18 11:16:43;;;;;;;24.23;12.90;;;-0.60;99.90;;;;;;5071379;28;20028;-80
2022/12/18 11:19:31;;;;;;;28.35;13.02;;;-0.60;99.90;;;;;;5074969;28;20033;-81
2022/12/18 11:21:57;;;;;;;23.95;12.63;;;-0.50;99.90;;;;;;5069509;28;20052;-79
2022/12/18 11:24:28;;;;;;;26.05;12.38;;;-0.50;99.90;;;;;;5058488;28;20100;-80
2022/12/18 11:26:54;;;;;;;24.80;11.80;;;-0.40;99.90;;;;;;5059369;28;20029;-79
2022/12/18 11:29:51;;;;;;;23.20;12.10;;;-0.40;99.90;;;;;;5056754;28;20044;-80
2022/12/18 11:32:40;;;;;;;24.83;12.98;;;-0.30;99.90;;;;;;5042648;28;20053;-79
2022/12/18 11:35:33;;;;;;;23.17;12.00;;;-0.10;99.90;;;;;;5075350;28;20149;-77
2022/12/18 11:38:06;;;;;;;21.73;11.90;;;-0.10;99.90;;;;;;5069618;28;20040;-77
2022/12/18 11:40:41;;;;;;;27.33;13.02;;;-0.10;99.90;;;;;;5074062;28;20111;-77
2022/12/18 11:43:26;;;;;;;21.55;12.38;;;-0.20;99.90;;;;;;5075771;28;20051;-77
2022/12/18 11:45:58;;;;;;;22.85;12.70;;;-0.40;99.90;;;;;;5075735;28;20366;-80
2022/12/18 11:48:37;;;;;;;24.65;13.30;;;-0.20;99.90;;;;;;5075969;28;20357;-80
2022/12/18 11:51:10;;;;;;;22.55;12.77;;;-0.20;99.90;;;;;;5075301;28;20056;-80
2022/12/18 11:53:38;;;;;;;30.00;13.52;;;-0.20;99.90;;;;;;5075453;28;20333;-79
2022/12/18 11:56:41;;;;;;;26.83;13.18;;;-0.40;99.90;;;;;;5075632;28;20494;-80
2022/12/18 11:59:39;;;;;;;24.05;12.95;;;-0.50;99.90;;;;;;5075327;28;20082;-80
2022/12/18 12:02:11;;;;;;;30.42;13.82;;;-0.40;99.90;;;;;;5075494;28;20032;-80
2022/12/18 12:05:07;;;;;;;25.52;13.13;;;-0.50;99.90;;;;;;5063264;28;20032;-80
2022/12/18 12:08:07;;;;;;;24.77;13.48;;;-0.30;99.90;;;;;;5076130;28;20032;-79
2022/12/18 12:10:49;;;;;;;27.65;14.55;;;-0.20;99.90;;;;;;5076782;28;20041;-79
2022/12/18 12:13:39;;;;;;;29.17;14.95;;;-0.10;99.90;;;;;;5078425;28;20120;-80
2022/12/18 12:16:15;;;;;;;22.65;13.15;;;0.00;99.90;;;;;;5079958;28;20502;-79
2022/12/18 12:19:08;;;;;;;32.63;15.52;;;-0.10;99.90;;;;;;5060601;28;20059;-80
2022/12/18 12:21:40;;;;;;;44.97;22.02;;;-0.10;99.90;;;;;;5091956;28;20051;-80
2022/12/18 12:24:51;;;;;;;34.10;18.15;;;0.10;99.90;;;;;;5075185;28;20020;-80
2022/12/18 12:27:29;;;;;;;35.70;15.68;;;0.10;99.90;;;;;;5057722;28;20033;-80
2022/12/18 12:30:00;;;;;;;30.95;16.13;;;0.20;99.90;;;;;;5072590;28;20037;-79
2022/12/18 12:32:41;;;;;;;21.58;10.50;;;0.10;99.90;;;;;;5074634;28;20534;-80
2022/12/18 12:35:26;;;;;;;24.92;14.32;;;0.20;99.90;;;;;;5064966;28;20028;-79
2022/12/18 12:38:04;;;;;;;24.20;13.43;;;0.10;99.90;;;;;;5074225;28;20036;-80
2022/12/18 12:40:39;;;;;;;31.63;14.68;;;0.10;99.90;;;;;;5074553;28;20044;-80
2022/12/18 12:43:30;;;;;;;27.05;14.80;;;0.40;99.90;;;;;;5050248;28;20032;-78
2022/12/18 12:45:59;;;;;;;27.35;14.02;;;0.40;99.90;;;;;;5053785;28;20029;-80
2022/12/18 12:48:49;;;;;;;30.60;13.95;;;0.40;99.90;;;;;;5060841;28;20041;-81
2022/12/18 12:51:28;;;;;;;29.13;13.48;;;0.40;99.90;;;;;;5038275;28;20032;-80
2022/12/18 12:53:56;;;;;;;28.33;16.58;;;0.50;99.90;;;;;;5056340;28;20539;-78
2022/12/18 12:56:24;;;;;;;25.60;15.45;;;0.50;99.90;;;;;;5073135;28;20469;-78
2022/12/18 12:59:21;;;;;;;24.10;14.48;;;0.70;99.90;;;;;;5073706;28;20040;-79